This is the latest recevied weather packets stored in our database for station/object JF1AJE-13. If no packets are shown the sender has not sent any weather packets the latest 10 day(s).
| Time | Temp. | Humidity | Pressure | Rain* | Wind** | Luminosity | Snow |
|---|---|---|---|---|---|---|---|
| 1788360165 | 26.11° C | 79% | 1008.4 hPa | 0 mm | - | - | - |
| 1788343366 | 27.22° C | 71% | 1008.4 hPa | 0 mm | - | - | - |
| 1788339767 | 27.78° C | 66% | 1008 hPa | 0 mm | - | - | - |
| 1788338566 | 28.33° C | 65% | 1008.1 hPa | 0 mm | - | - | - |
| 1788327765 | 31.67° C | 53% | 1007.7 hPa | 0 mm | - | - | - |
| 1788296565 | 23.33° C | 92% | 1010.5 hPa | 0 mm | - | - | - |
| 1788292965 | 23.33° C | 92% | 1010.6 hPa | 0.25 mm | - | - | - |
| 1788288165 | 23.33° C | 91% | 1010.6 hPa | 0 mm | - | - | - |
| 1788284565 | 23.33° C | 91% | 1011.1 hPa | 0 mm | - | - | - |
| 1788282165 | 23.33° C | 91% | 1011 hPa | 0 mm | - | - | - |
| 1788279765 | 23.89° C | 90% | 1011.1 hPa | 0 mm | - | - | - |
| 1788278565 | 23.89° C | 90% | 1011.1 hPa | 0 mm | - | - | - |
| 1788276164 | 23.89° C | 90% | 1011.6 hPa | 0 mm | - | - | - |
| 1788261767 | 25.56° C | 78% | 1012.2 hPa | 0 mm | - | - | - |
| 1788258167 | 26.11° C | 74% | 1011.7 hPa | 0 mm | - | - | - |
| 1788255766 | 26.11° C | 71% | 1011.3 hPa | 0 mm | - | - | - |
| 1788241365 | 28.33° C | 58% | 1011.1 hPa | 0 mm | - | - | - |
| 1788238966 | 28.89° C | 56% | 1011.2 hPa | 0 mm | - | - | - |
| 1788237765 | 29.44° C | 54% | 1011.3 hPa | 0 mm | - | - | - |
| 1788236565 | 29.44° C | 56% | 1011.2 hPa | 0 mm | - | - | - |
| 1788198165 | 23.33° C | 76% | 1012.6 hPa | 0 mm | - | - | - |
| 1788196964 | 23.33° C | 76% | 1012.7 hPa | 0 mm | - | - | - |
| 1788194566 | 23.33° C | 76% | 1012.6 hPa | 0 mm | - | - | - |
| 1788193365 | 23.33° C | 76% | 1012.4 hPa | 0 mm | - | - | - |
| 1788189765 | 23.89° C | 74% | 1012.7 hPa | 0 mm | - | - | - |
* Rain latest hour (hover to see other rain measurements)
** Current wind speed in m/s (hover to see current wind gust speed)